Time;durP1;ratioP1;P1;durP2;ratioP2;P2;SDS_P1;SDS_P2;PMS_P1;PMS_P2;Temp;Humidity;BMP_temperature;BMP_pressure;BME280_temperature;BME280_humidity;BME280_pressure;Samples;Min_cycle;Max_cycle;Signal;HPM_P1;HPM_P2
2024/03/18 00:00:15;;;;;;;4.82;1.90;;;12.90;83.80;;;;;;5082558;28;20035;-63
2024/03/18 00:02:46;;;;;;;1.98;1.35;;;12.90;83.90;;;;;;5085379;28;20120;-63
2024/03/18 00:05:17;;;;;;;4.07;2.25;;;12.90;84.00;;;;;;5082375;28;20368;-64
2024/03/18 00:07:44;;;;;;;5.20;1.75;;;12.90;84.00;;;;;;5080942;28;20032;-64
2024/03/18 00:10:12;;;;;;;2.50;1.67;;;12.90;83.90;;;;;;5083214;28;20051;-64
2024/03/18 00:12:42;;;;;;;4.20;1.67;;;12.90;84.10;;;;;;5081387;28;20111;-64
2024/03/18 00:15:10;;;;;;;3.75;1.45;;;12.90;84.10;;;;;;5087315;28;20399;-64
2024/03/18 00:17:36;;;;;;;4.15;2.20;;;12.90;84.10;;;;;;5085569;28;20083;-64
2024/03/18 00:20:22;;;;;;;6.18;1.70;;;13.00;84.30;;;;;;5082418;28;20127;-64
2024/03/18 00:22:48;;;;;;;2.00;1.35;;;13.00;84.30;;;;;;5078422;28;20044;-64
2024/03/18 00:25:13;;;;;;;3.30;1.67;;;12.90;84.20;;;;;;5083381;28;20030;-64
2024/03/18 00:27:40;;;;;;;2.85;1.48;;;13.00;84.30;;;;;;5082260;28;20024;-65
2024/03/18 00:30:11;;;;;;;2.25;1.73;;;12.90;84.40;;;;;;5084789;28;20069;-64
2024/03/18 00:32:39;;;;;;;2.72;1.42;;;13.00;84.50;;;;;;5083943;28;20028;-64
2024/03/18 00:35:06;;;;;;;4.40;1.77;;;12.90;84.50;;;;;;5088621;28;20541;-64
2024/03/18 00:37:31;;;;;;;2.58;1.30;;;12.90;84.50;;;;;;5090050;28;20091;-64
2024/03/18 00:39:58;;;;;;;1.98;1.58;;;12.90;84.50;;;;;;5090035;28;20051;-64
2024/03/18 00:42:24;;;;;;;2.08;1.50;;;13.00;84.50;;;;;;5085719;28;20046;-64
2024/03/18 00:44:50;;;;;;;2.53;1.48;;;13.00;84.50;;;;;;5077194;28;20024;-64
2024/03/18 00:47:16;;;;;;;2.47;1.63;;;13.00;84.40;;;;;;5082267;28;20073;-64
2024/03/18 00:49:42;;;;;;;2.53;1.70;;;13.10;84.40;;;;;;5082525;28;20423;-64
2024/03/18 00:52:08;;;;;;;1.88;1.25;;;13.00;84.30;;;;;;5084179;28;20017;-63
2024/03/18 00:54:35;;;;;;;2.45;2.03;;;13.10;84.30;;;;;;5082980;28;20020;-64
2024/03/18 00:57:01;;;;;;;1.75;1.58;;;13.10;84.40;;;;;;5085938;28;20513;-63
2024/03/18 00:59:27;;;;;;;2.10;1.45;;;13.10;84.40;;;;;;5082188;28;20036;-64
2024/03/18 01:01:53;;;;;;;2.72;1.88;;;13.10;84.40;;;;;;5083226;28;20024;-63
2024/03/18 01:04:19;;;;;;;2.55;1.40;;;13.10;84.40;;;;;;5080396;28;20021;-63
2024/03/18 01:06:45;;;;;;;4.45;1.20;;;13.10;84.40;;;;;;5069684;28;20123;-64
2024/03/18 01:09:12;;;;;;;1.65;1.42;;;13.10;84.40;;;;;;5089841;28;20379;-64
2024/03/18 01:11:38;;;;;;;3.38;1.90;;;13.10;84.50;;;;;;5087677;28;20044;-64
2024/03/18 01:14:04;;;;;;;4.03;1.75;;;13.00;84.50;;;;;;5086269;28;20020;-64
2024/03/18 01:16:30;;;;;;;1.95;1.50;;;13.00;84.70;;;;;;5082910;28;20097;-63
2024/03/18 01:18:56;;;;;;;2.97;1.70;;;13.00;84.70;;;;;;5084358;28;20112;-64
2024/03/18 01:21:24;;;;;;;3.55;2.35;;;13.10;84.70;;;;;;5078380;28;20124;-64
2024/03/18 01:23:50;;;;;;;3.08;1.75;;;13.10;84.60;;;;;;5082565;28;20031;-64
2024/03/18 01:26:18;;;;;;;7.00;1.70;;;13.10;84.60;;;;;;5087373;28;20024;-64
2024/03/18 01:28:44;;;;;;;4.50;2.10;;;13.10;84.60;;;;;;5090384;28;20078;-64
2024/03/18 01:31:10;;;;;;;2.88;1.30;;;13.10;84.60;;;;;;5090130;28;20292;-64
2024/03/18 01:33:36;;;;;;;1.98;1.38;;;13.10;84.60;;;;;;5071067;28;20044;-64
2024/03/18 01:36:02;;;;;;;3.17;2.05;;;13.10;84.60;;;;;;5087545;28;20028;-64
2024/03/18 01:38:29;;;;;;;3.38;1.80;;;13.20;84.70;;;;;;5089006;28;20125;-65
2024/03/18 01:40:55;;;;;;;2.67;2.25;;;13.10;84.60;;;;;;5081878;28;20081;-65
2024/03/18 01:43:23;;;;;;;7.32;2.33;;;13.10;84.60;;;;;;5080214;28;20376;-65
2024/03/18 01:45:48;;;;;;;2.50;1.98;;;13.10;84.60;;;;;;5087746;28;20055;-64
2024/03/18 01:48:14;;;;;;;3.22;1.60;;;13.10;84.70;;;;;;5086189;28;20111;-64
2024/03/18 01:50:41;;;;;;;2.00;1.42;;;13.10;84.80;;;;;;5085097;28;20395;-64
2024/03/18 01:53:11;;;;;;;2.83;1.52;;;13.10;84.80;;;;;;5086937;28;20483;-64
2024/03/18 01:55:38;;;;;;;2.88;1.88;;;13.10;84.80;;;;;;5085915;28;20053;-64
2024/03/18 01:58:05;;;;;;;4.95;2.13;;;13.10;84.80;;;;;;5086841;28;20103;-63
2024/03/18 02:00:41;;;;;;;3.65;2.35;;;13.10;84.80;;;;;;5084332;28;20020;-64
2024/03/18 02:03:08;;;;;;;4.20;1.63;;;13.10;84.90;;;;;;5076598;28;20089;-64
2024/03/18 02:05:38;;;;;;;3.45;1.70;;;13.10;84.90;;;;;;5084234;28;20028;-64
2024/03/18 02:08:05;;;;;;;3.20;1.70;;;13.10;85.00;;;;;;5085422;28;20012;-64
2024/03/18 02:10:31;;;;;;;3.67;1.70;;;13.10;85.00;;;;;;5085456;28;20038;-64
2024/03/18 02:13:01;;;;;;;2.88;2.13;;;13.10;85.00;;;;;;5081811;28;20028;-64
2024/03/18 02:15:28;;;;;;;4.00;2.45;;;13.00;85.10;;;;;;5073334;28;20479;-64
2024/03/18 02:17:57;;;;;;;2.42;1.67;;;13.00;85.10;;;;;;5078003;28;20089;-65
2024/03/18 02:20:23;;;;;;;3.85;1.80;;;13.00;85.10;;;;;;5076832;28;20057;-64
2024/03/18 02:22:49;;;;;;;2.50;1.88;;;13.10;85.20;;;;;;5077412;28;20067;-64
2024/03/18 02:25:16;;;;;;;5.13;2.30;;;13.10;85.20;;;;;;5086393;28;20069;-64
2024/03/18 02:27:44;;;;;;;3.05;2.08;;;13.10;85.10;;;;;;5087763;28;20086;-64
2024/03/18 02:30:11;;;;;;;2.97;2.00;;;13.10;85.10;;;;;;5086877;28;20425;-64
2024/03/18 02:32:37;;;;;;;6.72;2.28;;;13.10;85.10;;;;;;5085419;28;20044;-64
2024/03/18 02:35:08;;;;;;;3.10;2.03;;;13.20;85.10;;;;;;5077864;28;20525;-63
2024/03/18 02:37:34;;;;;;;3.67;2.08;;;13.20;85.10;;;;;;5087331;28;20107;-63
2024/03/18 02:40:01;;;;;;;3.60;2.40;;;13.20;85.00;;;;;;5085096;28;20086;-63
2024/03/18 02:42:27;;;;;;;4.18;2.33;;;13.20;85.00;;;;;;5084429;28;20039;-64
2024/03/18 02:44:52;;;;;;;3.45;1.98;;;13.20;85.00;;;;;;5082344;28;20020;-63
2024/03/18 02:47:18;;;;;;;4.18;2.58;;;13.20;85.00;;;;;;5083751;28;20487;-64
2024/03/18 02:49:44;;;;;;;5.63;2.25;;;13.30;85.00;;;;;;5084575;28;20028;-64
2024/03/18 02:52:10;;;;;;;5.80;2.22;;;13.20;85.00;;;;;;5087745;28;20111;-64
2024/03/18 02:54:35;;;;;;;4.00;2.72;;;13.30;85.00;;;;;;5085374;28;20032;-64
2024/03/18 02:57:01;;;;;;;3.85;1.90;;;13.20;85.00;;;;;;5086065;28;20028;-64
2024/03/18 02:59:27;;;;;;;3.92;2.22;;;13.20;85.00;;;;;;5082183;28;20033;-64
2024/03/18 03:01:53;;;;;;;9.35;3.03;;;13.30;85.10;;;;;;5085287;28;20446;-64
2024/03/18 03:04:19;;;;;;;5.63;2.08;;;13.20;85.00;;;;;;5085604;28;20028;-64
2024/03/18 03:06:44;;;;;;;3.33;2.33;;;13.30;85.10;;;;;;5085986;28;20398;-64
2024/03/18 03:09:11;;;;;;;4.20;3.00;;;13.30;85.10;;;;;;5087471;28;20482;-64
2024/03/18 03:11:37;;;;;;;3.28;2.13;;;13.30;85.10;;;;;;5086624;28;20036;-64
2024/03/18 03:14:03;;;;;;;3.97;2.05;;;13.30;85.10;;;;;;5078509;28;20024;-64
2024/03/18 03:16:29;;;;;;;5.18;2.78;;;13.30;85.10;;;;;;5085998;28;20031;-64
2024/03/18 03:18:55;;;;;;;3.75;1.65;;;13.30;85.20;;;;;;5078564;28;20032;-64
2024/03/18 03:21:21;;;;;;;3.22;2.00;;;13.30;85.20;;;;;;5080404;28;20043;-64
2024/03/18 03:23:47;;;;;;;5.07;2.63;;;13.30;85.20;;;;;;5079911;28;20056;-64
2024/03/18 03:26:13;;;;;;;3.33;2.33;;;13.30;85.20;;;;;;5082384;28;20503;-64
2024/03/18 03:28:39;;;;;;;3.15;1.75;;;13.30;85.20;;;;;;5085062;28;20085;-64
2024/03/18 03:31:08;;;;;;;3.65;2.35;;;13.30;85.20;;;;;;5079703;28;20039;-64
2024/03/18 03:33:35;;;;;;;4.65;2.58;;;13.30;85.20;;;;;;5078734;28;20369;-64
2024/03/18 03:36:02;;;;;;;4.10;2.35;;;13.30;85.20;;;;;;5079250;28;20087;-64
2024/03/18 03:38:28;;;;;;;4.75;2.25;;;13.40;85.20;;;;;;5086451;28;20395;-64
2024/03/18 03:40:55;;;;;;;3.72;2.75;;;13.30;85.20;;;;;;5084558;28;20483;-63
2024/03/18 03:43:22;;;;;;;3.88;2.10;;;13.30;85.20;;;;;;5080530;28;20535;-64
2024/03/18 03:45:58;;;;;;;5.45;2.67;;;13.40;85.20;;;;;;5081815;28;20028;-63
2024/03/18 03:48:25;;;;;;;3.92;2.65;;;13.30;85.30;;;;;;5079321;28;20027;-64
2024/03/18 03:50:52;;;;;;;4.13;2.50;;;13.30;85.30;;;;;;5082278;28;20028;-63
2024/03/18 03:53:18;;;;;;;3.80;2.38;;;13.30;85.40;;;;;;5088384;28;20046;-63
2024/03/18 03:55:45;;;;;;;4.05;2.03;;;13.30;85.30;;;;;;5087130;28;20336;-63
2024/03/18 03:58:12;;;;;;;4.47;2.88;;;13.30;85.30;;;;;;5077695;28;20409;-64
2024/03/18 04:00:47;;;;;;;4.18;3.03;;;13.40;85.30;;;;;;5083721;28;20471;-64
2024/03/18 04:03:25;;;;;;;4.15;2.10;;;13.40;85.30;;;;;;5085404;28;20368;-64
2024/03/18 04:05:54;;;;;;;3.85;2.60;;;13.40;85.30;;;;;;5085310;28;20020;-64
2024/03/18 04:08:22;;;;;;;2.83;2.00;;;13.40;85.30;;;;;;5087295;28;20021;-64
2024/03/18 04:10:49;;;;;;;5.88;2.25;;;13.40;85.30;;;;;;5076244;28;20532;-64
2024/03/18 04:13:15;;;;;;;4.65;2.25;;;13.40;85.30;;;;;;5090938;28;20043;-64
2024/03/18 04:15:42;;;;;;;4.00;2.78;;;13.40;85.30;;;;;;5092755;28;20073;-65
2024/03/18 04:18:08;;;;;;;4.50;3.20;;;13.40;85.30;;;;;;5088500;28;20123;-65
2024/03/18 04:20:35;;;;;;;3.97;2.42;;;13.40;85.40;;;;;;5080682;28;20511;-64
2024/03/18 04:23:05;;;;;;;3.67;2.75;;;13.30;85.40;;;;;;5087036;28;20093;-64
2024/03/18 04:25:33;;;;;;;3.25;2.50;;;13.30;85.40;;;;;;5091655;28;20499;-64
2024/03/18 04:27:59;;;;;;;5.35;3.00;;;13.30;85.50;;;;;;5086175;28;20119;-64
2024/03/18 04:30:25;;;;;;;3.78;2.63;;;13.30;85.50;;;;;;5086481;28;20119;-64
2024/03/18 04:32:50;;;;;;;5.35;3.00;;;13.30;85.60;;;;;;5083661;28;20028;-64
2024/03/18 04:35:19;;;;;;;3.35;2.35;;;13.30;85.60;;;;;;5090724;28;20024;-64
2024/03/18 04:37:46;;;;;;;5.72;2.47;;;13.30;85.60;;;;;;5089750;28;20035;-64
2024/03/18 04:40:16;;;;;;;5.82;3.10;;;13.30;85.60;;;;;;5085006;28;20027;-64
2024/03/18 04:42:43;;;;;;;3.70;2.38;;;13.30;85.60;;;;;;5084814;28;20039;-64
2024/03/18 04:45:10;;;;;;;4.82;2.75;;;13.30;85.60;;;;;;5081801;28;20105;-64
2024/03/18 04:47:39;;;;;;;6.95;2.65;;;13.40;85.60;;;;;;5079869;28;20039;-65
2024/03/18 04:50:08;;;;;;;5.72;3.28;;;13.30;85.60;;;;;;5079919;28;20029;-64
2024/03/18 04:52:37;;;;;;;3.55;2.10;;;13.30;85.70;;;;;;5088243;28;20103;-64
2024/03/18 04:55:05;;;;;;;9.50;3.58;;;13.30;85.70;;;;;;5088071;28;20486;-64
2024/03/18 04:57:32;;;;;;;4.53;3.10;;;13.30;85.80;;;;;;5079607;28;20036;-64
2024/03/18 04:59:58;;;;;;;4.32;2.83;;;13.30;85.70;;;;;;5089454;28;20039;-64
2024/03/18 05:02:24;;;;;;;5.53;3.17;;;13.30;85.70;;;;;;5084694;28;20036;-64
2024/03/18 05:04:51;;;;;;;5.10;2.85;;;13.30;85.70;;;;;;5085559;28;20024;-64
2024/03/18 05:07:17;;;;;;;5.82;2.80;;;13.40;85.80;;;;;;5085280;28;20028;-64
2024/03/18 05:09:44;;;;;;;3.60;2.08;;;13.40;85.80;;;;;;5085652;28;20056;-64
2024/03/18 05:12:11;;;;;;;5.20;2.92;;;13.40;85.80;;;;;;5090648;28;20063;-64
2024/03/18 05:14:38;;;;;;;4.90;2.97;;;13.40;85.80;;;;;;5080253;28;20497;-64
2024/03/18 05:17:04;;;;;;;7.25;3.38;;;13.30;85.80;;;;;;5076550;28;20629;-64
2024/03/18 05:19:30;;;;;;;8.90;3.22;;;13.30;85.90;;;;;;5078488;28;20093;-64
2024/03/18 05:21:55;;;;;;;5.53;2.22;;;13.30;86.00;;;;;;5090964;28;20040;-64
2024/03/18 05:24:21;;;;;;;4.22;2.45;;;13.30;85.90;;;;;;5088635;28;20024;-64
2024/03/18 05:26:47;;;;;;;5.35;2.45;;;13.40;86.00;;;;;;5082163;28;20024;-64
2024/03/18 05:29:13;;;;;;;3.88;2.47;;;13.40;85.90;;;;;;5084202;28;20028;-64
2024/03/18 05:31:39;;;;;;;4.82;3.08;;;13.40;85.90;;;;;;5071908;28;20143;-67
2024/03/18 05:34:06;;;;;;;5.38;2.60;;;13.40;86.00;;;;;;5083646;28;20111;-64
2024/03/18 05:36:35;;;;;;;5.85;3.15;;;13.40;86.00;;;;;;5083962;28;20036;-65
2024/03/18 05:39:01;;;;;;;5.90;2.90;;;13.30;86.00;;;;;;5086762;28;20151;-64
2024/03/18 05:41:26;;;;;;;6.00;3.00;;;13.30;86.00;;;;;;5083506;28;20111;-64
2024/03/18 05:43:52;;;;;;;4.85;2.30;;;13.40;86.20;;;;;;5077228;28;20094;-64
2024/03/18 05:46:18;;;;;;;3.85;2.38;;;13.30;86.10;;;;;;5080061;28;20034;-63
2024/03/18 05:48:44;;;;;;;6.50;2.97;;;13.30;86.10;;;;;;5086283;28;20047;-63
2024/03/18 05:51:10;;;;;;;5.18;3.95;;;13.30;86.10;;;;;;5089761;28;20097;-63
2024/03/18 05:53:36;;;;;;;5.88;3.60;;;13.30;86.20;;;;;;5084164;28;20099;-64
2024/03/18 05:56:02;;;;;;;5.32;2.58;;;13.30;86.20;;;;;;5087543;28;20332;-64
2024/03/18 05:58:29;;;;;;;5.75;3.60;;;13.30;86.30;;;;;;5086294;28;20025;-64
2024/03/18 06:00:54;;;;;;;5.70;2.30;;;13.20;86.30;;;;;;5082044;28;20061;-64
2024/03/18 06:03:20;;;;;;;6.18;3.47;;;13.30;86.40;;;;;;5075221;28;20028;-65
2024/03/18 06:05:46;;;;;;;5.30;3.10;;;13.30;86.30;;;;;;5086722;28;20368;-65
2024/03/18 06:08:11;;;;;;;5.72;2.95;;;13.30;86.50;;;;;;5090539;28;20021;-64
2024/03/18 06:10:37;;;;;;;4.47;2.58;;;13.30;86.60;;;;;;5088821;28;20032;-65
2024/03/18 06:13:03;;;;;;;6.35;3.55;;;13.30;86.70;;;;;;5088882;28;20039;-64
2024/03/18 06:15:28;;;;;;;5.65;3.03;;;13.30;86.70;;;;;;5084836;28;20055;-65
2024/03/18 06:17:54;;;;;;;9.55;3.10;;;13.30;86.70;;;;;;5079793;28;20414;-65
2024/03/18 06:20:20;;;;;;;6.65;2.85;;;13.30;86.60;;;;;;5084850;28;20048;-65
2024/03/18 06:22:47;;;;;;;6.25;3.00;;;13.40;86.70;;;;;;5086283;28;20068;-64
2024/03/18 06:27:57;;;;;;;5.63;3.20;;;13.40;86.50;;;;;;5083695;28;20560;-63
2024/03/18 06:30:23;;;;;;;5.15;2.90;;;13.40;86.50;;;;;;5088601;28;20028;-65
2024/03/18 06:32:49;;;;;;;5.07;3.22;;;13.40;86.60;;;;;;5088010;28;20372;-64
2024/03/18 06:35:15;;;;;;;5.38;3.55;;;13.40;86.70;;;;;;5079756;28;20043;-65
2024/03/18 06:37:40;;;;;;;5.75;3.15;;;13.40;86.60;;;;;;5078275;28;20037;-66
2024/03/18 06:40:07;;;;;;;7.15;4.20;;;13.40;87.20;;;;;;5079680;28;20083;-65
2024/03/18 06:42:33;;;;;;;6.53;3.03;;;13.40;86.60;;;;;;5089630;28;20537;-65
2024/03/18 06:44:58;;;;;;;4.35;3.08;;;13.50;86.50;;;;;;5089819;28;20028;-66
2024/03/18 06:47:25;;;;;;;7.30;3.38;;;13.50;86.50;;;;;;5087394;28;20028;-64
2024/03/18 06:49:54;;;;;;;5.82;2.65;;;13.50;86.60;;;;;;5082295;28;20027;-63
2024/03/18 06:52:20;;;;;;;7.35;3.83;;;13.50;86.70;;;;;;5071494;28;20056;-62
2024/03/18 06:54:46;;;;;;;5.25;3.25;;;13.50;86.70;;;;;;5082993;28;20080;-64
2024/03/18 06:57:13;;;;;;;6.05;3.30;;;13.50;86.70;;;;;;5081518;28;20097;-65
2024/03/18 06:59:39;;;;;;;6.15;4.07;;;13.50;86.70;;;;;;5077187;28;20051;-65
2024/03/18 07:02:04;;;;;;;4.85;2.90;;;13.50;86.80;;;;;;5085929;28;20074;-65
2024/03/18 07:04:30;;;;;;;6.13;3.10;;;13.50;86.90;;;;;;5082436;28;20035;-65
2024/03/18 07:06:56;;;;;;;4.45;3.08;;;13.50;86.80;;;;;;5077316;28;20070;-64
2024/03/18 07:09:21;;;;;;;3.53;2.83;;;13.60;86.80;;;;;;5088469;28;20049;-64
2024/03/18 07:11:47;;;;;;;6.45;3.40;;;13.60;86.70;;;;;;5086795;28;20059;-63
2024/03/18 07:14:15;;;;;;;4.75;2.80;;;13.60;86.70;;;;;;5080074;28;20029;-64
2024/03/18 07:16:41;;;;;;;9.15;3.13;;;13.50;86.80;;;;;;5077561;28;20388;-64
2024/03/18 07:19:07;;;;;;;5.82;3.10;;;13.60;86.80;;;;;;5085626;28;20069;-65
2024/03/18 07:21:32;;;;;;;9.43;3.83;;;13.60;86.80;;;;;;5082143;28;20096;-65
2024/03/18 07:24:00;;;;;;;7.18;4.10;;;13.60;86.80;;;;;;5076882;28;20021;-65
2024/03/18 07:26:25;;;;;;;7.32;4.03;;;13.50;86.80;;;;;;5082464;28;20039;-65
2024/03/18 07:28:51;;;;;;;6.63;4.25;;;13.60;86.90;;;;;;5077504;28;20415;-65
2024/03/18 07:31:17;;;;;;;4.25;2.83;;;13.50;86.90;;;;;;5074428;28;20053;-65
2024/03/18 07:33:42;;;;;;;7.13;2.90;;;13.50;86.90;;;;;;5085047;28;20622;-65
2024/03/18 07:36:08;;;;;;;6.05;3.88;;;13.50;86.90;;;;;;5086135;28;20047;-65
2024/03/18 07:38:37;;;;;;;9.57;3.38;;;13.50;86.90;;;;;;5080970;28;20107;-65
2024/03/18 07:41:03;;;;;;;5.30;3.10;;;13.60;87.00;;;;;;5074007;28;20089;-65
2024/03/18 07:43:29;;;;;;;6.70;3.08;;;13.60;86.90;;;;;;5084038;28;20139;-65
2024/03/18 07:45:54;;;;;;;5.85;3.50;;;13.60;86.80;;;;;;5091056;28;20514;-65
2024/03/18 07:48:20;;;;;;;8.95;3.58;;;13.60;86.80;;;;;;5083310;28;20099;-64
2024/03/18 07:50:53;;;;;;;9.40;4.40;;;13.60;86.90;;;;;;5081503;28;20123;-64
2024/03/18 07:53:19;;;;;;;9.07;4.53;;;13.60;86.90;;;;;;5088919;28;20057;-65
2024/03/18 07:55:44;;;;;;;8.52;3.72;;;13.60;87.00;;;;;;5090550;28;20092;-64
2024/03/18 07:58:10;;;;;;;13.85;5.25;;;13.60;87.00;;;;;;5083789;28;20032;-64
2024/03/18 08:00:36;;;;;;;8.50;3.40;;;13.70;87.00;;;;;;5085620;28;20429;-64
2024/03/18 08:03:01;;;;;;;8.40;5.13;;;13.70;86.90;;;;;;5086250;28;20070;-64
2024/03/18 08:05:30;;;;;;;6.75;3.38;;;13.70;86.90;;;;;;5078397;28;20032;-64
2024/03/18 08:07:56;;;;;;;6.40;3.70;;;13.70;86.90;;;;;;5080455;28;20020;-63
2024/03/18 08:10:22;;;;;;;7.25;4.22;;;13.80;86.70;;;;;;5090052;28;20498;-63
2024/03/18 08:12:47;;;;;;;9.38;4.07;;;13.90;86.50;;;;;;5078325;28;20028;-63
2024/03/18 08:15:15;;;;;;;8.68;4.30;;;13.90;86.30;;;;;;5080922;28;20108;-63
2024/03/18 08:17:41;;;;;;;8.25;4.47;;;13.90;86.30;;;;;;5068845;28;20091;-63
2024/03/18 08:20:08;;;;;;;9.20;3.97;;;13.90;86.40;;;;;;5083415;28;20912;-63
2024/03/18 08:22:33;;;;;;;9.93;4.18;;;13.90;86.40;;;;;;5080466;28;20111;-64
2024/03/18 08:24:59;;;;;;;11.35;4.68;;;14.00;86.30;;;;;;5080830;28;20480;-64
2024/03/18 08:27:29;;;;;;;10.60;4.93;;;14.00;86.20;;;;;;5081882;28;20039;-64
2024/03/18 08:29:55;;;;;;;9.68;5.45;;;14.00;86.30;;;;;;5084093;28;20289;-64
2024/03/18 08:32:20;;;;;;;8.00;4.80;;;14.00;86.20;;;;;;5085186;28;20098;-64
2024/03/18 08:34:46;;;;;;;11.52;5.32;;;14.00;86.10;;;;;;5081072;28;20447;-65
2024/03/18 08:37:12;;;;;;;9.18;4.88;;;14.00;86.20;;;;;;5081234;28;20070;-65
2024/03/18 08:39:38;;;;;;;9.30;4.35;;;14.00;86.20;;;;;;5075312;28;20042;-65
2024/03/18 08:42:04;;;;;;;8.75;4.43;;;14.00;86.30;;;;;;5077547;28;20029;-65
2024/03/18 08:44:29;;;;;;;15.82;5.90;;;14.00;86.00;;;;;;5085288;28;20469;-65
2024/03/18 08:46:55;;;;;;;10.63;4.80;;;14.10;86.10;;;;;;5079223;28;20111;-64
2024/03/18 08:49:23;;;;;;;6.78;3.08;;;14.10;86.00;;;;;;5072225;28;20073;-64
2024/03/18 08:51:49;;;;;;;11.52;5.85;;;14.20;85.80;;;;;;5083304;28;20679;-64
2024/03/18 08:54:16;;;;;;;8.63;4.40;;;14.20;85.70;;;;;;5085420;28;20085;-68
2024/03/18 08:56:42;;;;;;;6.78;3.65;;;14.20;85.70;;;;;;5083297;28;20028;-69
2024/03/18 08:59:10;;;;;;;7.57;3.92;;;14.20;85.70;;;;;;5075029;28;20066;-71
2024/03/18 09:01:35;;;;;;;8.32;4.30;;;14.10;85.50;;;;;;5071669;28;20028;-71
2024/03/18 09:04:01;;;;;;;6.72;4.38;;;14.10;85.50;;;;;;5079724;28;20031;-71
2024/03/18 09:06:26;;;;;;;8.63;4.43;;;14.10;85.60;;;;;;5076758;28;20036;-71
2024/03/18 09:08:52;;;;;;;5.10;2.60;;;14.10;85.50;;;;;;5074643;28;20098;-70
2024/03/18 09:11:18;;;;;;;7.70;3.67;;;14.10;85.40;;;;;;5079037;28;20017;-70
2024/03/18 09:13:44;;;;;;;5.32;2.83;;;14.10;85.40;;;;;;5074475;28;20072;-72
2024/03/18 09:16:09;;;;;;;6.53;3.28;;;14.10;85.40;;;;;;5077030;28;20032;-73
2024/03/18 09:18:35;;;;;;;8.15;4.03;;;14.10;85.30;;;;;;5077683;28;20401;-72
2024/03/18 09:21:00;;;;;;;8.63;3.83;;;14.10;85.20;;;;;;5085525;28;20055;-71
2024/03/18 09:23:27;;;;;;;5.75;3.30;;;14.00;85.20;;;;;;5071882;28;20054;-66
2024/03/18 09:25:52;;;;;;;9.07;4.78;;;13.90;85.20;;;;;;5076410;28;20229;-67
2024/03/18 09:28:19;;;;;;;9.98;3.05;;;13.90;85.30;;;;;;5075188;28;20111;-66
2024/03/18 09:30:44;;;;;;;9.90;3.65;;;13.90;85.40;;;;;;5082259;28;20012;-66
2024/03/18 09:33:11;;;;;;;7.72;3.70;;;13.90;85.30;;;;;;5077344;28;20039;-68
2024/03/18 09:35:37;;;;;;;9.40;3.95;;;13.90;85.30;;;;;;5078903;28;20024;-66
2024/03/18 09:38:03;;;;;;;9.38;3.40;;;13.80;85.30;;;;;;5084118;28;20034;-66
2024/03/18 09:40:30;;;;;;;7.80;3.95;;;13.80;85.30;;;;;;5073873;28;20028;-66
2024/03/18 09:42:56;;;;;;;5.43;2.60;;;13.80;85.30;;;;;;5084529;28;20379;-66
2024/03/18 09:45:23;;;;;;;9.80;5.00;;;13.70;85.40;;;;;;5084755;28;20556;-65
2024/03/18 09:47:49;;;;;;;10.32;4.13;;;13.70;85.40;;;;;;5064865;28;20025;-65
2024/03/18 09:50:16;;;;;;;6.25;2.92;;;13.70;85.40;;;;;;5079539;28;20037;-66
2024/03/18 09:52:44;;;;;;;10.65;4.60;;;13.70;85.50;;;;;;5087021;28;20146;-66
2024/03/18 09:55:23;;;;;;;10.82;4.15;;;13.60;85.50;;;;;;5082982;28;20143;-66
2024/03/18 09:57:49;;;;;;;8.75;3.53;;;13.60;85.50;;;;;;5088899;28;20128;-66
2024/03/18 10:00:17;;;;;;;8.55;3.30;;;13.60;85.60;;;;;;5084531;28;20044;-66
2024/03/18 10:02:43;;;;;;;10.50;3.80;;;13.60;85.50;;;;;;5068057;28;20043;-66
2024/03/18 10:05:09;;;;;;;10.30;4.20;;;13.70;85.30;;;;;;5085987;28;20070;-66
2024/03/18 10:07:36;;;;;;;7.75;3.67;;;13.80;85.30;;;;;;5073012;28;20024;-66
2024/03/18 10:10:04;;;;;;;6.88;4.47;;;13.90;85.10;;;;;;5080165;28;20031;-65
2024/03/18 10:12:30;;;;;;;6.05;3.38;;;14.00;84.90;;;;;;5079455;28;20427;-64
2024/03/18 10:14:57;;;;;;;6.45;2.97;;;14.20;84.70;;;;;;5076407;28;20036;-65
2024/03/18 10:17:25;;;;;;;10.48;4.63;;;14.40;84.40;;;;;;5083177;28;20032;-65
2024/03/18 10:19:51;;;;;;;11.60;4.57;;;14.60;83.80;;;;;;5077486;28;20463;-65
2024/03/18 10:22:16;;;;;;;10.02;4.13;;;14.70;83.40;;;;;;5077755;28;20396;-65
2024/03/18 10:24:43;;;;;;;9.85;4.10;;;14.70;83.30;;;;;;5081181;28;20102;-65
2024/03/18 10:27:10;;;;;;;8.60;4.10;;;14.70;83.20;;;;;;5078363;28;20032;-65
2024/03/18 10:29:38;;;;;;;5.75;2.33;;;14.60;82.80;;;;;;5076060;28;20035;-65
2024/03/18 10:32:25;;;;;;;8.43;3.67;;;14.60;83.00;;;;;;5075707;28;20056;-65
2024/03/18 10:34:51;;;;;;;7.95;3.83;;;14.50;82.90;;;;;;5076671;28;20508;-65
2024/03/18 10:37:21;;;;;;;3.78;2.25;;;14.70;82.90;;;;;;5083777;28;20043;-66
2024/03/18 10:39:53;;;;;;;7.45;3.13;;;14.90;82.70;;;;;;5072093;28;20031;-66
2024/03/18 10:42:21;;;;;;;6.30;3.42;;;15.30;82.40;;;;;;5069772;28;20037;-66
2024/03/18 10:45:26;;;;;;;8.18;3.80;;;15.70;81.40;;;;;;5083886;28;20030;-66
2024/03/18 10:47:52;;;;;;;4.25;2.40;;;15.80;80.30;;;;;;5074942;28;20440;-66
2024/03/18 10:50:18;;;;;;;9.00;3.35;;;15.80;80.10;;;;;;5082068;28;20387;-66
2024/03/18 10:52:44;;;;;;;6.28;2.65;;;15.70;80.20;;;;;;5070289;28;20028;-66
2024/03/18 10:55:22;;;;;;;3.60;2.47;;;15.60;80.40;;;;;;5081683;28;20043;-66
2024/03/18 10:57:53;;;;;;;3.63;2.22;;;15.50;80.90;;;;;;5070224;28;20056;-66
2024/03/18 11:00:19;;;;;;;4.13;2.05;;;15.40;80.60;;;;;;5067787;28;20238;-66
2024/03/18 11:03:05;;;;;;;5.85;2.90;;;15.20;80.60;;;;;;5082682;28;20060;-65
2024/03/18 11:05:32;;;;;;;4.53;1.83;;;15.10;80.90;;;;;;5086610;28;20027;-66
2024/03/18 11:08:02;;;;;;;4.50;2.28;;;15.00;81.20;;;;;;5072530;28;20036;-65
2024/03/18 11:10:34;;;;;;;4.43;2.10;;;15.00;81.30;;;;;;5072165;28;20362;-65
2024/03/18 11:13:07;;;;;;;4.22;2.45;;;14.80;81.30;;;;;;5074179;28;20030;-65
2024/03/18 11:15:33;;;;;;;4.82;1.73;;;14.80;81.60;;;;;;5075247;28;20502;-65
2024/03/18 11:18:07;;;;;;;2.33;1.77;;;14.80;81.60;;;;;;5077457;28;20043;-65
2024/03/18 11:20:47;;;;;;;5.80;3.00;;;14.70;81.70;;;;;;5082851;28;20125;-65
2024/03/18 11:23:17;;;;;;;7.07;3.22;;;14.70;81.60;;;;;;5065854;28;20488;-65
2024/03/18 11:25:43;;;;;;;5.75;3.13;;;14.60;81.70;;;;;;5083065;28;20378;-65
2024/03/18 11:28:10;;;;;;;5.43;3.05;;;14.60;81.90;;;;;;5078090;28;20031;-65
2024/03/18 11:30:36;;;;;;;4.97;3.05;;;14.60;82.00;;;;;;5081048;28;20036;-65
2024/03/18 11:33:12;;;;;;;11.43;3.63;;;14.60;82.00;;;;;;5075936;28;20077;-65
2024/03/18 11:35:41;;;;;;;12.75;3.25;;;14.50;82.00;;;;;;5082366;28;20035;-65
2024/03/18 11:38:11;;;;;;;7.30;2.75;;;14.50;82.10;;;;;;5076249;28;20019;-65
2024/03/18 11:40:39;;;;;;;6.63;3.17;;;14.40;82.30;;;;;;5079931;28;20032;-65
2024/03/18 11:43:05;;;;;;;4.95;3.47;;;14.40;82.50;;;;;;5078980;28;20039;-65
2024/03/18 11:45:31;;;;;;;7.30;3.28;;;14.40;82.60;;;;;;5075295;28;20495;-64
2024/03/18 11:48:04;;;;;;;9.98;3.85;;;14.50;82.70;;;;;;5076776;28;20030;-64
2024/03/18 11:50:31;;;;;;;9.77;4.05;;;14.80;82.50;;;;;;5078937;28;20390;-65
2024/03/18 11:52:58;;;;;;;7.55;2.72;;;15.10;82.20;;;;;;5080552;28;20478;-65
2024/03/18 11:55:25;;;;;;;5.68;3.42;;;15.50;81.70;;;;;;5077612;28;20032;-65
2024/03/18 11:57:50;;;;;;;8.38;3.92;;;16.00;81.00;;;;;;5080059;28;20478;-65
2024/03/18 12:00:16;;;;;;;5.75;3.15;;;16.40;79.80;;;;;;5082848;28;20141;-65
2024/03/18 12:02:42;;;;;;;8.35;3.08;;;16.70;79.30;;;;;;5081170;28;20044;-65
2024/03/18 12:05:11;;;;;;;6.78;3.05;;;16.90;78.90;;;;;;5079793;28;20043;-65
2024/03/18 12:07:37;;;;;;;8.07;3.10;;;17.00;77.60;;;;;;5086438;28;20028;-65
2024/03/18 12:10:07;;;;;;;5.40;3.22;;;17.00;77.80;;;;;;5080848;28;20028;-66
2024/03/18 12:12:35;;;;;;;6.50;2.92;;;17.10;77.40;;;;;;5085521;28;20039;-65
2024/03/18 12:15:01;;;;;;;7.20;2.95;;;17.10;76.30;;;;;;5083310;28;20579;-65
2024/03/18 12:17:28;;;;;;;4.88;2.53;;;16.90;76.20;;;;;;5080203;28;20028;-65
2024/03/18 12:20:00;;;;;;;3.10;2.13;;;17.00;76.30;;;;;;5082262;28;20503;-65
2024/03/18 12:22:28;;;;;;;6.78;2.65;;;17.20;75.80;;;;;;5084463;28;20565;-65
2024/03/18 12:30:31;;;;;;;6.38;3.33;;;17.10;74.20;;;;;;5087173;28;20125;-65
2024/03/18 12:32:58;;;;;;;5.03;2.90;;;17.00;74.50;;;;;;5084933;28;20028;-65
2024/03/18 12:35:26;;;;;;;4.05;2.33;;;17.00;74.70;;;;;;5081132;28;20021;-65
2024/03/18 12:37:55;;;;;;;4.50;2.22;;;17.00;74.90;;;;;;5071958;28;20048;-65
2024/03/18 12:40:22;;;;;;;4.93;2.58;;;17.00;74.80;;;;;;5079178;28;20024;-65
2024/03/18 12:42:49;;;;;;;3.67;1.67;;;17.10;74.90;;;;;;5086173;28;20028;-64
2024/03/18 12:45:15;;;;;;;5.97;1.80;;;17.10;75.00;;;;;;5087033;28;20146;-65
2024/03/18 12:47:41;;;;;;;5.90;2.42;;;17.00;74.30;;;;;;5085400;28;20051;-64
2024/03/18 12:50:08;;;;;;;4.25;1.77;;;16.90;74.20;;;;;;5079267;28;20077;-65
2024/03/18 12:52:35;;;;;;;3.67;2.10;;;16.90;74.30;;;;;;5068763;28;20367;-65